• Join FlightAware (Why Join?)
  • Login
  • US Flag 
10:30AM EDT


 

Airport Tracker/Info


-or-


 

Live Flight TrackerFlight Track Log ✈ SKW5631 ✈ 24-Apr-2013 ✈ KSFO - KBFL

Flight Track Log - Related Links

Times and Time Zones

All times are in EDT time to prevent confusion due to time zone crossing. See the SKW5631 flight status page for this flight to view local times or setup timezone preferences in your user account.

Time Position Orientation Groundspeed Altitude Reporting Facility
EDT Latitude Longitude Course Direction KTS MPH feet Rate Location/Type
06:43PM 37.6333 -122.3500 38° Northeast 146 168 1,300  Level Northern Cal TRACON
06:44PM 37.6667 -122.3167 38° Northeast 179 206 3,000 1,500 Climbing Northern Cal TRACON
06:45PM 37.6906 -122.2908 41° Northeast 177 204 3,900 1,320 Climbing Oakland Center
06:46PM 37.7306 -122.2461 41° Northeast 188 216 5,400 1,620 Climbing Oakland Center
06:47PM 37.7503 -122.1633 73° East 209 241 7,200 1,560 Climbing Oakland Center
06:48PM 37.7542 -122.0928 86° East 205 236 8,600 1,440 Climbing Oakland Center
06:49PM 37.7567 -122.0206 87° East 206 237 10,200 1,440 Climbing Oakland Center
06:50PM 37.7742 -121.9447 74° East 221 254 11,600 1,380 Climbing Oakland Center
06:51PM 37.7683 -121.8728 96° East 219 252 13,100 1,080 Climbing Oakland Center
06:52PM 37.7353 -121.7997 120° Southeast 238 274 13,800 780 Climbing Oakland Center
06:53PM 37.7014 -121.7233 119° Southeast 247 284 14,800 1,020 Climbing Oakland Center
06:54PM 37.6694 -121.6453 117° Southeast 250 288 15,900 1,020 Climbing Oakland Center
06:55PM 37.6375 -121.5678 117° Southeast 248 285 16,900 1,020 Climbing Oakland Center
06:56PM 37.6058 -121.4908 117° Southeast 247 284 18,000 1,020 Climbing Oakland Center
06:57PM 37.5681 -121.4000 118° Southeast 246 283 19,100 900 Climbing Oakland Center
06:58PM 37.5358 -121.3217 117° Southeast 252 290 19,900 720 Climbing Oakland Center
06:59PM 37.5028 -121.2436 118° Southeast 252 290 20,600 720 Climbing Oakland Center
07:00PM 37.4692 -121.1647 118° Southeast 256 295 21,400 720 Climbing Oakland Center
07:01PM 37.4333 -121.0775 117° Southeast 263 303 22,100 660 Climbing Oakland Center
07:02PM 37.3983 -120.9972 119° Southeast 263 303 22,800 420 Climbing Oakland Center
07:03PM 37.3628 -120.9142 118° Southeast 267 307 23,000 60 Climbing Oakland Center
07:04PM 37.3247 -120.8247 118° Southeast 288 331 23,000  Level Oakland Center
07:05PM 37.2836 -120.7369 120° Southeast 300 345 23,000  Level Oakland Center
07:06PM 37.2456 -120.6481 118° Southeast 294 338 23,000  Level Oakland Center
07:07PM 37.2069 -120.5597 119° Southeast 290 334 23,000  Level Oakland Center
07:08PM 37.1600 -120.4553 119° Southeast 290 334 23,000  Level Oakland Center
07:09PM 37.1233 -120.3664 117° Southeast 288 331 23,000  Level Oakland Center
07:10PM 37.0858 -120.2794 118° Southeast 284 327 23,000  Level Oakland Center
07:11PM 37.0486 -120.1936 118° Southeast 280 322 23,000 -60 Level Oakland Center
07:12PM 37.0081 -120.1006 119° Southeast 284 327 22,900 -480 Descending Oakland Center
07:13PM 36.9681 -120.0094 119° Southeast 299 344 22,100 -780 Descending Oakland Center
07:14PM 36.9258 -119.9136 119° Southeast 311 358 21,400 -540 Descending Oakland Center
07:15PM 36.8806 -119.8222 122° Southeast 308 354 21,000 -240 Descending Oakland Center
07:16PM 36.8069 -119.7794 155° Southeast 292 336 21,000  Level Oakland Center
07:18PM 36.7350 -119.7356 154° Southeast 284 327 21,000  Level Oakland Center
07:19PM 36.6617 -119.6978 158° South 284 327 21,000 -480 Level Oakland Center
07:20PM 36.5883 -119.6586 157° South 287 330 20,100 -1,080 Descending Oakland Center
07:21PM 36.4911 -119.6086 158° South 313 360 18,900 -1,260 Descending Oakland Center
07:22PM 36.4097 -119.5658 157° South 317 365 17,600 -1,200 Descending Oakland Center
07:23PM 36.3289 -119.5239 157° South 316 364 16,500 -1,140 Descending Oakland Center
07:24PM 36.2481 -119.4833 158° South 314 361 15,300 -780 Descending Oakland Center
07:25PM 36.1703 -119.4428 157° South 303 349 15,000 -660 Descending Oakland Center
07:26PM 36.0956 -119.4044 157° South 293 337 14,000 -1,080 Descending Oakland Center
07:27PM 36.0189 -119.3661 158° South 296 341 12,800 -1,140 Descending Oakland Center
07:28PM 35.9436 -119.3300 159° South 292 336 11,700 -1,200 Descending Oakland Center
07:29PM 35.8706 -119.2936 158° South 286 329 10,400 -1,500 Descending Oakland Center
07:30PM 35.7825 -119.2475 157° South 285 328 8,700 -1,380 Descending Oakland Center
07:31PM 35.7100 -119.2125 159° South 283 326 7,700 -960 Descending Oakland Center
07:32PM 35.6442 -119.1794 158° South 274 315 6,800 -1,020 Descending Oakland Center
07:32PM 35.6214 -119.1669 156° South 268 308 6,300 -840 Descending Los Angeles Center
07:33PM 35.5639 -119.1353 156° South 252 290 5,600 -540 Descending Los Angeles Center
07:34PM 35.5136 -119.0997 150° Southeast 233 268 5,300 -540 Descending Los Angeles Center
07:35PM 35.4736 -119.0481 134° Southeast 216 249 4,500 -780 Descending Los Angeles Center
07:36PM 35.4317 -118.9953 134° Southeast 215 247 3,800 -720 Descending Los Angeles Center
07:39PM 35.4333 -119.0500 151° Southeast  Level FlightAware Approximate
07:46PM 35.4339 -119.0577 151° Southeast  Level Estimated